sensor_id;sensor_type;location;lat;lon;timestamp;temperature;humidity
13049;DHT22;6591;51.446;5.404;2024-02-23T00:01:12;6.50;99.90
13049;DHT22;6591;51.446;5.404;2024-02-23T00:03:39;8.40;99.90
13049;DHT22;6591;51.446;5.404;2024-02-23T00:06:06;6.50;99.90
13049;DHT22;6591;51.446;5.404;2024-02-23T00:08:35;8.40;99.90
13049;DHT22;6591;51.446;5.404;2024-02-23T00:11:07;6.40;99.90
13049;DHT22;6591;51.446;5.404;2024-02-23T00:13:35;6.50;99.90
13049;DHT22;6591;51.446;5.404;2024-02-23T00:16:02;8.60;99.90
13049;DHT22;6591;51.446;5.404;2024-02-23T00:18:33;6.40;99.90
13049;DHT22;6591;51.446;5.404;2024-02-23T00:21:00;4.60;99.90
13049;DHT22;6591;51.446;5.404;2024-02-23T00:23:27;8.80;99.90
13049;DHT22;6591;51.446;5.404;2024-02-23T00:25:55;6.30;99.90
13049;DHT22;6591;51.446;5.404;2024-02-23T00:28:22;7.10;99.90
13049;DHT22;6591;51.446;5.404;2024-02-23T00:30:49;6.30;99.90
13049;DHT22;6591;51.446;5.404;2024-02-23T00:33:17;6.20;99.90
13049;DHT22;6591;51.446;5.404;2024-02-23T00:35:44;6.30;99.90
13049;DHT22;6591;51.446;5.404;2024-02-23T00:38:11;6.20;99.90
13049;DHT22;6591;51.446;5.404;2024-02-23T00:40:38;6.20;99.90
13049;DHT22;6591;51.446;5.404;2024-02-23T00:43:05;6.20;99.90
13049;DHT22;6591;51.446;5.404;2024-02-23T00:45:32;6.20;99.90
13049;DHT22;6591;51.446;5.404;2024-02-23T00:47:59;6.20;99.90
13049;DHT22;6591;51.446;5.404;2024-02-23T00:50:26;6.20;99.90
13049;DHT22;6591;51.446;5.404;2024-02-23T00:52:54;6.30;99.90
13049;DHT22;6591;51.446;5.404;2024-02-23T00:55:21;6.20;99.90
13049;DHT22;6591;51.446;5.404;2024-02-23T00:57:49;6.10;99.90
13049;DHT22;6591;51.446;5.404;2024-02-23T01:00:16;6.20;99.90
13049;DHT22;6591;51.446;5.404;2024-02-23T01:02:43;6.20;99.90
13049;DHT22;6591;51.446;5.404;2024-02-23T01:05:10;6.20;99.90
13049;DHT22;6591;51.446;5.404;2024-02-23T01:07:37;8.60;99.90
13049;DHT22;6591;51.446;5.404;2024-02-23T01:10:05;8.00;99.90
13049;DHT22;6591;51.446;5.404;2024-02-23T01:12:33;6.10;99.90
13049;DHT22;6591;51.446;5.404;2024-02-23T01:15:00;6.30;99.90
13049;DHT22;6591;51.446;5.404;2024-02-23T01:17:31;8.40;99.90
13049;DHT22;6591;51.446;5.404;2024-02-23T01:19:59;6.20;99.90
13049;DHT22;6591;51.446;5.404;2024-02-23T01:22:26;7.50;99.90
13049;DHT22;6591;51.446;5.404;2024-02-23T01:24:53;6.30;99.90
13049;DHT22;6591;51.446;5.404;2024-02-23T01:27:21;6.20;99.90
13049;DHT22;6591;51.446;5.404;2024-02-23T01:29:48;8.70;99.90
13049;DHT22;6591;51.446;5.404;2024-02-23T01:32:16;6.20;99.90
13049;DHT22;6591;51.446;5.404;2024-02-23T01:34:43;6.20;99.90
13049;DHT22;6591;51.446;5.404;2024-02-23T01:37:11;6.20;99.90
13049;DHT22;6591;51.446;5.404;2024-02-23T01:39:38;8.60;99.90
13049;DHT22;6591;51.446;5.404;2024-02-23T01:42:05;6.30;99.90
13049;DHT22;6591;51.446;5.404;2024-02-23T01:44:33;6.30;99.90
13049;DHT22;6591;51.446;5.404;2024-02-23T01:47:00;8.50;99.90
13049;DHT22;6591;51.446;5.404;2024-02-23T01:49:27;6.30;99.90
13049;DHT22;6591;51.446;5.404;2024-02-23T01:51:58;7.20;99.90
13049;DHT22;6591;51.446;5.404;2024-02-23T01:54:35;6.40;99.90
13049;DHT22;6591;51.446;5.404;2024-02-23T01:57:03;6.40;99.90
13049;DHT22;6591;51.446;5.404;2024-02-23T01:59:50;8.60;99.90
13049;DHT22;6591;51.446;5.404;2024-02-23T02:02:20;6.50;99.90
13049;DHT22;6591;51.446;5.404;2024-02-23T02:04:50;6.50;99.90
13049;DHT22;6591;51.446;5.404;2024-02-23T02:07:17;5.70;99.90
13049;DHT22;6591;51.446;5.404;2024-02-23T02:09:46;8.50;99.90
13049;DHT22;6591;51.446;5.404;2024-02-23T02:12:29;6.50;99.90
13049;DHT22;6591;51.446;5.404;2024-02-23T02:14:56;6.50;99.90
13049;DHT22;6591;51.446;5.404;2024-02-23T02:17:24;6.50;99.90
13049;DHT22;6591;51.446;5.404;2024-02-23T02:19:52;6.50;99.90
13049;DHT22;6591;51.446;5.404;2024-02-23T02:22:20;6.50;99.90
13049;DHT22;6591;51.446;5.404;2024-02-23T02:24:48;8.80;99.90
13049;DHT22;6591;51.446;5.404;2024-02-23T02:27:15;6.30;99.90
13049;DHT22;6591;51.446;5.404;2024-02-23T02:29:42;6.90;99.90
13049;DHT22;6591;51.446;5.404;2024-02-23T02:32:09;8.50;99.90
13049;DHT22;6591;51.446;5.404;2024-02-23T02:34:36;8.70;99.90
13049;DHT22;6591;51.446;5.404;2024-02-23T02:37:04;6.30;99.90
13049;DHT22;6591;51.446;5.404;2024-02-23T02:39:31;7.60;99.90
13049;DHT22;6591;51.446;5.404;2024-02-23T02:41:58;5.00;99.90
13049;DHT22;6591;51.446;5.404;2024-02-23T02:44:25;8.80;99.90
13049;DHT22;6591;51.446;5.404;2024-02-23T02:46:53;6.70;99.90
13049;DHT22;6591;51.446;5.404;2024-02-23T02:49:21;6.30;99.90
13049;DHT22;6591;51.446;5.404;2024-02-23T02:51:48;6.30;99.90
13049;DHT22;6591;51.446;5.404;2024-02-23T02:54:16;7.90;99.90
13049;DHT22;6591;51.446;5.404;2024-02-23T02:56:44;6.30;99.90
13049;DHT22;6591;51.446;5.404;2024-02-23T02:59:12;6.30;99.90
13049;DHT22;6591;51.446;5.404;2024-02-23T03:01:40;6.30;99.90
13049;DHT22;6591;51.446;5.404;2024-02-23T03:04:08;8.50;99.90
13049;DHT22;6591;51.446;5.404;2024-02-23T03:06:35;6.60;99.90
13049;DHT22;6591;51.446;5.404;2024-02-23T03:09:03;6.30;99.90
13049;DHT22;6591;51.446;5.404;2024-02-23T03:11:30;6.30;99.90
13049;DHT22;6591;51.446;5.404;2024-02-23T03:13:57;7.80;99.90
13049;DHT22;6591;51.446;5.404;2024-02-23T03:16:25;6.30;99.90
13049;DHT22;6591;51.446;5.404;2024-02-23T03:18:57;8.40;99.90
13049;DHT22;6591;51.446;5.404;2024-02-23T03:21:25;6.30;99.90
13049;DHT22;6591;51.446;5.404;2024-02-23T03:23:52;7.60;99.90
13049;DHT22;6591;51.446;5.404;2024-02-23T03:26:19;6.50;99.90
13049;DHT22;6591;51.446;5.404;2024-02-23T03:28:47;6.30;99.90
13049;DHT22;6591;51.446;5.404;2024-02-23T03:31:15;6.30;99.90
13049;DHT22;6591;51.446;5.404;2024-02-23T03:33:42;7.30;99.90
13049;DHT22;6591;51.446;5.404;2024-02-23T03:36:10;6.30;99.90
13049;DHT22;6591;51.446;5.404;2024-02-23T03:38:37;6.30;99.90
13049;DHT22;6591;51.446;5.404;2024-02-23T03:41:05;6.30;99.90
13049;DHT22;6591;51.446;5.404;2024-02-23T03:43:33;4.20;99.90
13049;DHT22;6591;51.446;5.404;2024-02-23T03:46:01;8.90;99.90
13049;DHT22;6591;51.446;5.404;2024-02-23T03:48:28;6.40;99.90
13049;DHT22;6591;51.446;5.404;2024-02-23T03:50:56;6.30;99.90
13049;DHT22;6591;51.446;5.404;2024-02-23T03:53:23;6.40;99.90
13049;DHT22;6591;51.446;5.404;2024-02-23T03:55:51;4.70;99.90
13049;DHT22;6591;51.446;5.404;2024-02-23T03:58:18;6.60;99.90
13049;DHT22;6591;51.446;5.404;2024-02-23T04:00:45;6.50;99.90
13049;DHT22;6591;51.446;5.404;2024-02-23T04:03:12;8.30;99.90
13049;DHT22;6591;51.446;5.404;2024-02-23T04:05:39;7.80;99.90
13049;DHT22;6591;51.446;5.404;2024-02-23T04:08:06;6.60;99.90
13049;DHT22;6591;51.446;5.404;2024-02-23T04:10:34;6.60;99.90
13049;DHT22;6591;51.446;5.404;2024-02-23T04:13:01;6.60;99.90
13049;DHT22;6591;51.446;5.404;2024-02-23T04:15:28;9.00;99.90
13049;DHT22;6591;51.446;5.404;2024-02-23T04:17:55;8.60;99.90
13049;DHT22;6591;51.446;5.404;2024-02-23T04:20:24;6.60;99.90
13049;DHT22;6591;51.446;5.404;2024-02-23T04:22:52;6.60;99.90
13049;DHT22;6591;51.446;5.404;2024-02-23T04:25:22;6.60;99.90
13049;DHT22;6591;51.446;5.404;2024-02-23T04:27:50;6.60;99.90
13049;DHT22;6591;51.446;5.404;2024-02-23T04:30:17;9.30;99.90
13049;DHT22;6591;51.446;5.404;2024-02-23T04:32:44;6.60;99.90
13049;DHT22;6591;51.446;5.404;2024-02-23T04:35:11;6.60;99.90
13049;DHT22;6591;51.446;5.404;2024-02-23T04:37:38;6.60;99.90
13049;DHT22;6591;51.446;5.404;2024-02-23T04:40:07;6.70;99.90
13049;DHT22;6591;51.446;5.404;2024-02-23T04:42:34;6.60;99.90
13049;DHT22;6591;51.446;5.404;2024-02-23T04:45:01;8.90;99.90
13049;DHT22;6591;51.446;5.404;2024-02-23T04:47:28;6.70;99.90
13049;DHT22;6591;51.446;5.404;2024-02-23T04:49:55;6.70;99.90
13049;DHT22;6591;51.446;5.404;2024-02-23T04:52:23;6.70;99.90
13049;DHT22;6591;51.446;5.404;2024-02-23T04:54:50;6.80;99.90
13049;DHT22;6591;51.446;5.404;2024-02-23T04:57:18;6.80;99.90
13049;DHT22;6591;51.446;5.404;2024-02-23T04:59:45;6.90;99.90
13049;DHT22;6591;51.446;5.404;2024-02-23T05:02:12;6.90;99.90
13049;DHT22;6591;51.446;5.404;2024-02-23T05:04:40;7.00;99.90
13049;DHT22;6591;51.446;5.404;2024-02-23T05:07:07;8.70;99.90
13049;DHT22;6591;51.446;5.404;2024-02-23T05:09:34;7.10;99.90
13049;DHT22;6591;51.446;5.404;2024-02-23T05:12:01;8.50;99.90
13049;DHT22;6591;51.446;5.404;2024-02-23T05:14:29;7.20;99.90
13049;DHT22;6591;51.446;5.404;2024-02-23T05:16:56;7.20;99.90
13049;DHT22;6591;51.446;5.404;2024-02-23T05:19:26;9.60;99.90
13049;DHT22;6591;51.446;5.404;2024-02-23T05:21:53;8.00;99.90
13049;DHT22;6591;51.446;5.404;2024-02-23T05:24:20;8.60;99.90
13049;DHT22;6591;51.446;5.404;2024-02-23T05:26:47;7.40;99.90
13049;DHT22;6591;51.446;5.404;2024-02-23T05:29:15;7.50;99.90
13049;DHT22;6591;51.446;5.404;2024-02-23T05:31:46;8.80;99.90
13049;DHT22;6591;51.446;5.404;2024-02-23T05:34:15;7.50;99.90
13049;DHT22;6591;51.446;5.404;2024-02-23T05:36:43;7.60;99.90
13049;DHT22;6591;51.446;5.404;2024-02-23T05:39:10;7.60;99.90
13049;DHT22;6591;51.446;5.404;2024-02-23T05:41:39;7.60;99.90
13049;DHT22;6591;51.446;5.404;2024-02-23T05:44:06;7.00;99.90
13049;DHT22;6591;51.446;5.404;2024-02-23T05:46:34;10.50;99.90
13049;DHT22;6591;51.446;5.404;2024-02-23T05:49:02;7.70;99.90
13049;DHT22;6591;51.446;5.404;2024-02-23T05:51:31;7.70;99.90
13049;DHT22;6591;51.446;5.404;2024-02-23T05:53:58;8.30;99.90
13049;DHT22;6591;51.446;5.404;2024-02-23T05:56:25;7.70;99.90
13049;DHT22;6591;51.446;5.404;2024-02-23T05:58:53;7.70;99.90
13049;DHT22;6591;51.446;5.404;2024-02-23T06:01:21;7.70;99.90
13049;DHT22;6591;51.446;5.404;2024-02-23T06:03:48;9.80;99.90
13049;DHT22;6591;51.446;5.404;2024-02-23T06:06:15;7.80;99.90
13049;DHT22;6591;51.446;5.404;2024-02-23T06:08:42;7.80;99.90
13049;DHT22;6591;51.446;5.404;2024-02-23T06:11:10;7.80;99.90
13049;DHT22;6591;51.446;5.404;2024-02-23T06:13:37;7.80;99.90
13049;DHT22;6591;51.446;5.404;2024-02-23T06:16:09;7.80;99.90
13049;DHT22;6591;51.446;5.404;2024-02-23T06:18:38;7.80;99.90
13049;DHT22;6591;51.446;5.404;2024-02-23T06:21:25;7.80;99.90
13049;DHT22;6591;51.446;5.404;2024-02-23T06:23:53;7.90;99.90
13049;DHT22;6591;51.446;5.404;2024-02-23T06:26:23;6.00;99.90
13049;DHT22;6591;51.446;5.404;2024-02-23T06:28:50;7.90;99.90
13049;DHT22;6591;51.446;5.404;2024-02-23T06:31:21;9.20;99.90
13049;DHT22;6591;51.446;5.404;2024-02-23T06:33:48;7.70;99.90
13049;DHT22;6591;51.446;5.404;2024-02-23T06:36:17;7.90;99.90
13049;DHT22;6591;51.446;5.404;2024-02-23T06:38:53;7.90;99.90
13049;DHT22;6591;51.446;5.404;2024-02-23T06:41:25;7.90;99.90
13049;DHT22;6591;51.446;5.404;2024-02-23T06:43:53;7.90;99.90
13049;DHT22;6591;51.446;5.404;2024-02-23T06:46:21;9.50;99.90
13049;DHT22;6591;51.446;5.404;2024-02-23T06:48:51;8.00;99.90
13049;DHT22;6591;51.446;5.404;2024-02-23T06:51:18;9.20;99.90
13049;DHT22;6591;51.446;5.404;2024-02-23T06:53:49;8.00;99.90
13049;DHT22;6591;51.446;5.404;2024-02-23T06:56:17;7.00;99.90
13049;DHT22;6591;51.446;5.404;2024-02-23T06:58:47;9.70;99.90
13049;DHT22;6591;51.446;5.404;2024-02-23T07:01:14;8.10;99.90
13049;DHT22;6591;51.446;5.404;2024-02-23T07:03:42;9.70;99.90
13049;DHT22;6591;51.446;5.404;2024-02-23T07:06:10;8.00;99.90
13049;DHT22;6591;51.446;5.404;2024-02-23T07:08:38;8.10;99.90
13049;DHT22;6591;51.446;5.404;2024-02-23T07:11:05;8.10;99.90
13049;DHT22;6591;51.446;5.404;2024-02-23T07:13:32;8.10;99.90
13049;DHT22;6591;51.446;5.404;2024-02-23T07:16:00;8.10;99.90
13049;DHT22;6591;51.446;5.404;2024-02-23T07:18:27;8.10;99.90
13049;DHT22;6591;51.446;5.404;2024-02-23T07:20:55;8.10;99.90
13049;DHT22;6591;51.446;5.404;2024-02-23T07:23:24;10.10;99.90
13049;DHT22;6591;51.446;5.404;2024-02-23T07:25:51;8.20;99.90
13049;DHT22;6591;51.446;5.404;2024-02-23T07:28:18;10.60;99.90
13049;DHT22;6591;51.446;5.404;2024-02-23T07:30:50;10.20;99.90
13049;DHT22;6591;51.446;5.404;2024-02-23T07:33:17;10.50;99.90
13049;DHT22;6591;51.446;5.404;2024-02-23T07:35:54;5.80;99.90
13049;DHT22;6591;51.446;5.404;2024-02-23T07:38:21;10.40;99.90
13049;DHT22;6591;51.446;5.404;2024-02-23T07:40:51;9.90;99.90
13049;DHT22;6591;51.446;5.404;2024-02-23T07:43:18;10.10;99.90
13049;DHT22;6591;51.446;5.404;2024-02-23T07:45:46;8.50;99.90
13049;DHT22;6591;51.446;5.404;2024-02-23T07:48:13;9.10;99.90
13049;DHT22;6591;51.446;5.404;2024-02-23T07:50:40;8.40;99.90
13049;DHT22;6591;51.446;5.404;2024-02-23T07:53:07;8.90;99.90
13049;DHT22;6591;51.446;5.404;2024-02-23T07:55:34;11.10;99.90
13049;DHT22;6591;51.446;5.404;2024-02-23T07:58:02;9.90;99.90
13049;DHT22;6591;51.446;5.404;2024-02-23T08:00:29;9.70;99.90
13049;DHT22;6591;51.446;5.404;2024-02-23T08:02:56;10.50;99.90
13049;DHT22;6591;51.446;5.404;2024-02-23T08:05:23;9.80;99.90
13049;DHT22;6591;51.446;5.404;2024-02-23T08:07:51;11.00;99.90
13049;DHT22;6591;51.446;5.404;2024-02-23T08:10:19;9.00;99.90
13049;DHT22;6591;51.446;5.404;2024-02-23T08:12:52;9.30;99.90
13049;DHT22;6591;51.446;5.404;2024-02-23T08:15:25;9.10;99.90
13049;DHT22;6591;51.446;5.404;2024-02-23T08:17:52;9.10;99.90
13049;DHT22;6591;51.446;5.404;2024-02-23T08:20:20;9.10;99.90
13049;DHT22;6591;51.446;5.404;2024-02-23T08:22:49;9.10;99.90
13049;DHT22;6591;51.446;5.404;2024-02-23T08:25:16;10.80;99.90
13049;DHT22;6591;51.446;5.404;2024-02-23T08:27:43;9.90;99.90
13049;DHT22;6591;51.446;5.404;2024-02-23T08:30:11;9.30;99.90
13049;DHT22;6591;51.446;5.404;2024-02-23T08:32:41;9.30;99.90
13049;DHT22;6591;51.446;5.404;2024-02-23T08:35:08;9.30;99.90
13049;DHT22;6591;51.446;5.404;2024-02-23T08:37:35;9.30;99.90
13049;DHT22;6591;51.446;5.404;2024-02-23T08:40:03;9.40;99.90
13049;DHT22;6591;51.446;5.404;2024-02-23T08:42:33;9.50;99.90
13049;DHT22;6591;51.446;5.404;2024-02-23T08:45:00;9.90;99.90
13049;DHT22;6591;51.446;5.404;2024-02-23T08:47:27;10.80;99.90
13049;DHT22;6591;51.446;5.404;2024-02-23T08:49:59;9.60;99.90
13049;DHT22;6591;51.446;5.404;2024-02-23T08:52:26;9.60;99.90
13049;DHT22;6591;51.446;5.404;2024-02-23T08:54:53;9.60;99.90
13049;DHT22;6591;51.446;5.404;2024-02-23T08:57:20;12.20;99.90
13049;DHT22;6591;51.446;5.404;2024-02-23T08:59:52;9.80;99.90
13049;DHT22;6591;51.446;5.404;2024-02-23T09:02:20;10.00;99.90
13049;DHT22;6591;51.446;5.404;2024-02-23T09:04:50;9.90;99.90
13049;DHT22;6591;51.446;5.404;2024-02-23T09:07:18;12.70;99.90
13049;DHT22;6591;51.446;5.404;2024-02-23T09:09:51;10.00;99.90
13049;DHT22;6591;51.446;5.404;2024-02-23T09:12:18;12.30;99.90
13049;DHT22;6591;51.446;5.404;2024-02-23T09:14:52;11.30;99.90
13049;DHT22;6591;51.446;5.404;2024-02-23T09:17:28;10.20;99.90
13049;DHT22;6591;51.446;5.404;2024-02-23T09:19:55;10.20;99.90
13049;DHT22;6591;51.446;5.404;2024-02-23T09:22:24;10.30;99.90
13049;DHT22;6591;51.446;5.404;2024-02-23T09:24:51;10.40;99.90
13049;DHT22;6591;51.446;5.404;2024-02-23T09:27:20;12.40;99.90
13049;DHT22;6591;51.446;5.404;2024-02-23T09:29:48;10.40;99.90
13049;DHT22;6591;51.446;5.404;2024-02-23T09:32:15;10.50;99.90
13049;DHT22;6591;51.446;5.404;2024-02-23T09:34:44;10.40;99.90
13049;DHT22;6591;51.446;5.404;2024-02-23T09:37:11;11.80;99.90
13049;DHT22;6591;51.446;5.404;2024-02-23T09:39:38;10.40;99.90
13049;DHT22;6591;51.446;5.404;2024-02-23T09:42:09;10.40;99.90
13049;DHT22;6591;51.446;5.404;2024-02-23T09:44:41;10.40;99.90
13049;DHT22;6591;51.446;5.404;2024-02-23T09:47:13;11.60;99.90
13049;DHT22;6591;51.446;5.404;2024-02-23T09:49:41;11.70;99.90
13049;DHT22;6591;51.446;5.404;2024-02-23T09:52:09;11.80;99.90
13049;DHT22;6591;51.446;5.404;2024-02-23T09:54:37;12.70;99.90
13049;DHT22;6591;51.446;5.404;2024-02-23T09:57:08;10.30;99.90
13049;DHT22;6591;51.446;5.404;2024-02-23T09:59:37;12.60;99.90
13049;DHT22;6591;51.446;5.404;2024-02-23T10:02:13;12.40;99.90
13049;DHT22;6591;51.446;5.404;2024-02-23T10:04:43;10.20;99.90
13049;DHT22;6591;51.446;5.404;2024-02-23T10:07:14;10.20;99.90
13049;DHT22;6591;51.446;5.404;2024-02-23T10:09:43;10.20;99.90
13049;DHT22;6591;51.446;5.404;2024-02-23T10:12:10;10.10;99.90
13049;DHT22;6591;51.446;5.404;2024-02-23T10:14:37;10.80;99.90
13049;DHT22;6591;51.446;5.404;2024-02-23T10:17:06;10.10;99.90
13049;DHT22;6591;51.446;5.404;2024-02-23T10:19:33;11.90;99.90
13049;DHT22;6591;51.446;5.404;2024-02-23T10:22:01;10.10;99.90
13049;DHT22;6591;51.446;5.404;2024-02-23T10:24:29;10.10;99.90
13049;DHT22;6591;51.446;5.404;2024-02-23T10:26:56;10.00;99.90
13049;DHT22;6591;51.446;5.404;2024-02-23T10:29:25;12.20;99.90
13049;DHT22;6591;51.446;5.404;2024-02-23T10:31:56;12.70;99.90
13049;DHT22;6591;51.446;5.404;2024-02-23T10:34:27;11.30;99.90
13049;DHT22;6591;51.446;5.404;2024-02-23T10:36:56;11.70;99.90
13049;DHT22;6591;51.446;5.404;2024-02-23T10:39:24;10.20;99.90
13049;DHT22;6591;51.446;5.404;2024-02-23T10:42:03;10.30;99.90
13049;DHT22;6591;51.446;5.404;2024-02-23T10:44:31;10.40;99.90
13049;DHT22;6591;51.446;5.404;2024-02-23T10:46:59;10.40;99.90
13049;DHT22;6591;51.446;5.404;2024-02-23T10:49:28;11.60;99.90
13049;DHT22;6591;51.446;5.404;2024-02-23T10:51:58;10.50;99.90
13049;DHT22;6591;51.446;5.404;2024-02-23T10:54:27;10.60;99.90
13049;DHT22;6591;51.446;5.404;2024-02-23T10:56:54;12.80;99.90
13049;DHT22;6591;51.446;5.404;2024-02-23T10:59:23;9.00;99.90
13049;DHT22;6591;51.446;5.404;2024-02-23T11:01:54;10.60;99.90
13049;DHT22;6591;51.446;5.404;2024-02-23T11:04:26;12.20;99.90
13049;DHT22;6591;51.446;5.404;2024-02-23T11:06:55;11.30;99.90
13049;DHT22;6591;51.446;5.404;2024-02-23T11:09:26;10.70;99.90
13049;DHT22;6591;51.446;5.404;2024-02-23T11:11:55;10.70;99.90
13049;DHT22;6591;51.446;5.404;2024-02-23T11:14:38;10.80;99.90
13049;DHT22;6591;51.446;5.404;2024-02-23T11:17:06;10.80;99.90
13049;DHT22;6591;51.446;5.404;2024-02-23T11:19:46;10.90;99.90
13049;DHT22;6591;51.446;5.404;2024-02-23T11:22:35;12.40;99.90
13049;DHT22;6591;51.446;5.404;2024-02-23T11:25:07;13.30;99.90
13049;DHT22;6591;51.446;5.404;2024-02-23T11:27:38;10.60;99.90
13049;DHT22;6591;51.446;5.404;2024-02-23T11:30:10;11.00;99.90
13049;DHT22;6591;51.446;5.404;2024-02-23T11:32:46;10.00;99.90
13049;DHT22;6591;51.446;5.404;2024-02-23T11:35:16;11.10;99.90
13049;DHT22;6591;51.446;5.404;2024-02-23T11:37:55;11.20;99.90
13049;DHT22;6591;51.446;5.404;2024-02-23T11:40:31;11.60;99.90
13049;DHT22;6591;51.446;5.404;2024-02-23T11:42:59;11.80;99.90
13049;DHT22;6591;51.446;5.404;2024-02-23T11:45:30;11.30;99.90
13049;DHT22;6591;51.446;5.404;2024-02-23T11:47:58;12.80;99.90
13049;DHT22;6591;51.446;5.404;2024-02-23T11:50:27;11.40;99.90
13049;DHT22;6591;51.446;5.404;2024-02-23T11:52:54;11.30;99.90
13049;DHT22;6591;51.446;5.404;2024-02-23T11:55:22;11.30;99.90
13049;DHT22;6591;51.446;5.404;2024-02-23T11:57:51;11.30;99.90
13049;DHT22;6591;51.446;5.404;2024-02-23T12:00:31;11.30;99.90
13049;DHT22;6591;51.446;5.404;2024-02-23T12:02:59;11.30;99.90
13049;DHT22;6591;51.446;5.404;2024-02-23T12:05:26;12.80;99.90
13049;DHT22;6591;51.446;5.404;2024-02-23T12:07:54;9.70;99.90
13049;DHT22;6591;51.446;5.404;2024-02-23T12:10:23;11.20;99.90
13049;DHT22;6591;51.446;5.404;2024-02-23T12:12:50;11.20;99.90
13049;DHT22;6591;51.446;5.404;2024-02-23T12:15:17;11.20;99.90
13049;DHT22;6591;51.446;5.404;2024-02-23T12:17:49;11.50;99.90
13049;DHT22;6591;51.446;5.404;2024-02-23T12:20:16;11.20;99.90
13049;DHT22;6591;51.446;5.404;2024-02-23T12:22:46;11.20;99.90
13049;DHT22;6591;51.446;5.404;2024-02-23T12:25:14;12.80;99.90
13049;DHT22;6591;51.446;5.404;2024-02-23T12:27:43;11.30;99.90
13049;DHT22;6591;51.446;5.404;2024-02-23T12:30:14;11.30;99.90
13049;DHT22;6591;51.446;5.404;2024-02-23T12:32:42;11.30;99.90
13049;DHT22;6591;51.446;5.404;2024-02-23T12:35:12;11.40;99.90
13049;DHT22;6591;51.446;5.404;2024-02-23T12:37:43;13.30;99.90
13049;DHT22;6591;51.446;5.404;2024-02-23T12:40:11;12.20;99.90
13049;DHT22;6591;51.446;5.404;2024-02-23T12:42:39;11.70;99.90
13049;DHT22;6591;51.446;5.404;2024-02-23T12:45:07;11.90;99.90
13049;DHT22;6591;51.446;5.404;2024-02-23T12:47:34;11.80;99.90
13049;DHT22;6591;51.446;5.404;2024-02-23T12:50:01;14.00;99.90
13049;DHT22;6591;51.446;5.404;2024-02-23T12:52:29;13.50;99.90
13049;DHT22;6591;51.446;5.404;2024-02-23T12:54:56;12.00;99.90
13049;DHT22;6591;51.446;5.404;2024-02-23T12:57:23;13.80;99.90
13049;DHT22;6591;51.446;5.404;2024-02-23T12:59:51;12.00;99.90
13049;DHT22;6591;51.446;5.404;2024-02-23T13:02:18;13.00;99.90
13049;DHT22;6591;51.446;5.404;2024-02-23T13:04:46;12.10;99.90
13049;DHT22;6591;51.446;5.404;2024-02-23T13:07:16;13.40;99.90
13049;DHT22;6591;51.446;5.404;2024-02-23T13:09:44;12.30;99.90
13049;DHT22;6591;51.446;5.404;2024-02-23T13:12:11;13.30;99.90
13049;DHT22;6591;51.446;5.404;2024-02-23T13:14:39;13.30;99.90
13049;DHT22;6591;51.446;5.404;2024-02-23T13:17:06;12.40;99.90
13049;DHT22;6591;51.446;5.404;2024-02-23T13:19:33;12.20;99.90
13049;DHT22;6591;51.446;5.404;2024-02-23T13:22:01;12.20;99.90
13049;DHT22;6591;51.446;5.404;2024-02-23T13:24:28;12.80;99.90
13049;DHT22;6591;51.446;5.404;2024-02-23T13:26:55;12.20;99.90
13049;DHT22;6591;51.446;5.404;2024-02-23T13:29:23;12.10;99.90
13049;DHT22;6591;51.446;5.404;2024-02-23T13:31:50;12.10;99.90
13049;DHT22;6591;51.446;5.404;2024-02-23T13:34:17;12.90;99.90
13049;DHT22;6591;51.446;5.404;2024-02-23T13:36:45;11.50;99.90
13049;DHT22;6591;51.446;5.404;2024-02-23T13:39:12;12.90;99.90
13049;DHT22;6591;51.446;5.404;2024-02-23T13:41:39;11.80;99.90
13049;DHT22;6591;51.446;5.404;2024-02-23T13:44:07;11.70;99.90
13049;DHT22;6591;51.446;5.404;2024-02-23T13:46:43;12.80;99.90
13049;DHT22;6591;51.446;5.404;2024-02-23T13:49:10;11.60;99.90
13049;DHT22;6591;51.446;5.404;2024-02-23T13:51:39;12.20;99.90
13049;DHT22;6591;51.446;5.404;2024-02-23T13:54:06;14.00;99.90
13049;DHT22;6591;51.446;5.404;2024-02-23T13:56:34;11.50;99.90
13049;DHT22;6591;51.446;5.404;2024-02-23T13:59:01;12.20;99.90
13049;DHT22;6591;51.446;5.404;2024-02-23T14:01:29;12.90;99.90
13049;DHT22;6591;51.446;5.404;2024-02-23T14:03:56;13.40;99.90
13049;DHT22;6591;51.446;5.404;2024-02-23T14:06:23;11.70;99.90
13049;DHT22;6591;51.446;5.404;2024-02-23T14:08:50;11.70;99.90
13049;DHT22;6591;51.446;5.404;2024-02-23T14:11:17;11.80;99.90
13049;DHT22;6591;51.446;5.404;2024-02-23T14:13:45;12.10;99.90
13049;DHT22;6591;51.446;5.404;2024-02-23T14:16:17;11.80;99.90
13049;DHT22;6591;51.446;5.404;2024-02-23T14:18:46;11.90;99.90
13049;DHT22;6591;51.446;5.404;2024-02-23T14:21:15;11.90;99.90
13049;DHT22;6591;51.446;5.404;2024-02-23T14:23:43;11.90;99.90
13049;DHT22;6591;51.446;5.404;2024-02-23T14:26:10;11.90;99.90
13049;DHT22;6591;51.446;5.404;2024-02-23T14:28:38;12.80;99.90
13049;DHT22;6591;51.446;5.404;2024-02-23T14:31:07;12.10;99.90
13049;DHT22;6591;51.446;5.404;2024-02-23T14:33:35;12.20;99.90
13049;DHT22;6591;51.446;5.404;2024-02-23T14:36:02;11.80;99.90
13049;DHT22;6591;51.446;5.404;2024-02-23T14:38:32;9.50;99.90
13049;DHT22;6591;51.446;5.404;2024-02-23T14:40:59;11.60;99.90
13049;DHT22;6591;51.446;5.404;2024-02-23T14:43:27;13.20;99.90
13049;DHT22;6591;51.446;5.404;2024-02-23T14:45:57;11.40;99.90
13049;DHT22;6591;51.446;5.404;2024-02-23T14:48:25;11.20;99.90
13049;DHT22;6591;51.446;5.404;2024-02-23T14:50:52;11.00;99.90
13049;DHT22;6591;51.446;5.404;2024-02-23T14:53:19;11.00;99.90
13049;DHT22;6591;51.446;5.404;2024-02-23T14:55:55;10.70;99.90
13049;DHT22;6591;51.446;5.404;2024-02-23T14:58:25;10.50;99.90
13049;DHT22;6591;51.446;5.404;2024-02-23T15:00:52;12.30;99.90
13049;DHT22;6591;51.446;5.404;2024-02-23T15:03:19;11.40;99.90
13049;DHT22;6591;51.446;5.404;2024-02-23T15:05:52;10.30;99.90
13049;DHT22;6591;51.446;5.404;2024-02-23T15:08:21;10.30;99.90
13049;DHT22;6591;51.446;5.404;2024-02-23T15:10:50;10.30;99.90
13049;DHT22;6591;51.446;5.404;2024-02-23T15:13:29;12.10;99.90
13049;DHT22;6591;51.446;5.404;2024-02-23T15:15:56;12.10;99.90
13049;DHT22;6591;51.446;5.404;2024-02-23T15:18:23;10.30;99.90
13049;DHT22;6591;51.446;5.404;2024-02-23T15:20:50;10.30;99.90
13049;DHT22;6591;51.446;5.404;2024-02-23T15:23:18;11.00;99.90
13049;DHT22;6591;51.446;5.404;2024-02-23T15:25:51;11.00;99.90
13049;DHT22;6591;51.446;5.404;2024-02-23T15:28:32;10.40;99.90
13049;DHT22;6591;51.446;5.404;2024-02-23T15:30:59;10.50;99.90
13049;DHT22;6591;51.446;5.404;2024-02-23T15:33:29;10.50;99.90
13049;DHT22;6591;51.446;5.404;2024-02-23T15:35:57;10.60;99.90
13049;DHT22;6591;51.446;5.404;2024-02-23T15:38:25;10.60;99.90
13049;DHT22;6591;51.446;5.404;2024-02-23T15:40:53;12.80;99.90
13049;DHT22;6591;51.446;5.404;2024-02-23T15:43:20;11.70;99.90
13049;DHT22;6591;51.446;5.404;2024-02-23T15:45:50;10.50;99.90
13049;DHT22;6591;51.446;5.404;2024-02-23T15:48:17;12.40;99.90
13049;DHT22;6591;51.446;5.404;2024-02-23T15:50:44;11.70;99.90
13049;DHT22;6591;51.446;5.404;2024-02-23T15:53:32;12.50;99.90
13049;DHT22;6591;51.446;5.404;2024-02-23T15:56:00;10.20;99.90
13049;DHT22;6591;51.446;5.404;2024-02-23T15:58:28;11.20;99.90
13049;DHT22;6591;51.446;5.404;2024-02-23T16:00:55;10.10;99.90
13049;DHT22;6591;51.446;5.404;2024-02-23T16:03:24;10.20;99.90